Terminal Aerodrome Forecast
Issued by NWS Wilmington, NC

Home | Current Version | Previous Version | Text Only | Print | Product List | Glossary On
Versions: 1 2 3 4 5 6 7 8 9 10 11 12 13 14 15 16 17 18 19
309
FTUS42 KILM 191720
TAFILM
TAF
KILM 191720Z 1918/2018 12007KT P6SM SCT250
     FM191900 09004KT P6SM SCT250
     FM200400 VRB03KT P6SM OVC070
     FM201200 11004KT P6SM OVC050
     FM201700 21008KT P6SM OVC100=

USA.gov is the U.S. government's official web portal to all federal, state and local government web resources and services.